sensor_id;sensor_type;location;lat;lon;timestamp;P1;durP1;ratioP1;P2;durP2;ratioP2
30173;SDS011;16985;50.814;8.530;2023-07-28T00:00:21;3.33;;;1.80;;
30173;SDS011;16985;50.814;8.530;2023-07-28T00:02:47;2.33;;;1.30;;
30173;SDS011;16985;50.814;8.530;2023-07-28T00:05:13;2.55;;;1.40;;
30173;SDS011;16985;50.814;8.530;2023-07-28T00:07:39;1.67;;;1.30;;
30173;SDS011;16985;50.814;8.530;2023-07-28T00:10:05;1.35;;;1.20;;
30173;SDS011;16985;50.814;8.530;2023-07-28T00:12:31;3.30;;;1.70;;
30173;SDS011;16985;50.814;8.530;2023-07-28T00:14:57;2.05;;;1.20;;
30173;SDS011;16985;50.814;8.530;2023-07-28T00:17:24;1.60;;;1.30;;
30173;SDS011;16985;50.814;8.530;2023-07-28T00:19:50;1.15;;;1.05;;
30173;SDS011;16985;50.814;8.530;2023-07-28T00:22:16;3.28;;;1.23;;
30173;SDS011;16985;50.814;8.530;2023-07-28T00:24:41;2.38;;;1.30;;
30173;SDS011;16985;50.814;8.530;2023-07-28T00:27:07;3.45;;;1.67;;
30173;SDS011;16985;50.814;8.530;2023-07-28T00:29:33;1.80;;;1.40;;
30173;SDS011;16985;50.814;8.530;2023-07-28T00:32:01;2.50;;;1.50;;
30173;SDS011;16985;50.814;8.530;2023-07-28T00:34:27;6.80;;;1.60;;
30173;SDS011;16985;50.814;8.530;2023-07-28T00:36:53;3.47;;;1.40;;
30173;SDS011;16985;50.814;8.530;2023-07-28T00:39:18;1.02;;;0.93;;
30173;SDS011;16985;50.814;8.530;2023-07-28T00:41:45;5.68;;;1.42;;
30173;SDS011;16985;50.814;8.530;2023-07-28T00:44:10;1.02;;;0.93;;
30173;SDS011;16985;50.814;8.530;2023-07-28T00:46:36;3.08;;;1.48;;
30173;SDS011;16985;50.814;8.530;2023-07-28T00:49:02;5.88;;;1.20;;
30173;SDS011;16985;50.814;8.530;2023-07-28T00:51:29;10.77;;;1.40;;
30173;SDS011;16985;50.814;8.530;2023-07-28T00:53:56;2.53;;;1.30;;
30173;SDS011;16985;50.814;8.530;2023-07-28T00:56:24;5.30;;;1.30;;
30173;SDS011;16985;50.814;8.530;2023-07-28T00:58:50;1.85;;;1.00;;
30173;SDS011;16985;50.814;8.530;2023-07-28T01:01:16;5.95;;;1.67;;
30173;SDS011;16985;50.814;8.530;2023-07-28T01:03:42;3.63;;;1.17;;
30173;SDS011;16985;50.814;8.530;2023-07-28T01:11:21;1.10;;;0.95;;
30173;SDS011;16985;50.814;8.530;2023-07-28T01:13:47;2.15;;;1.45;;
30173;SDS011;16985;50.814;8.530;2023-07-28T01:16:13;1.25;;;0.73;;
30173;SDS011;16985;50.814;8.530;2023-07-28T01:18:40;1.05;;;0.85;;
30173;SDS011;16985;50.814;8.530;2023-07-28T01:21:08;1.08;;;0.57;;
30173;SDS011;16985;50.814;8.530;2023-07-28T01:23:55;1.00;;;0.50;;
30173;SDS011;16985;50.814;8.530;2023-07-28T01:26:35;0.50;;;0.50;;
30173;SDS011;16985;50.814;8.530;2023-07-28T01:29:02;0.73;;;0.73;;
30173;SDS011;16985;50.814;8.530;2023-07-28T01:31:29;0.55;;;0.55;;
30173;SDS011;16985;50.814;8.530;2023-07-28T01:33:55;0.50;;;0.50;;
30173;SDS011;16985;50.814;8.530;2023-07-28T01:36:21;0.77;;;0.60;;
30173;SDS011;16985;50.814;8.530;2023-07-28T01:38:47;0.98;;;0.68;;
30173;SDS011;16985;50.814;8.530;2023-07-28T01:41:13;0.50;;;0.50;;
30173;SDS011;16985;50.814;8.530;2023-07-28T01:43:39;0.88;;;0.50;;
30173;SDS011;16985;50.814;8.530;2023-07-28T01:46:04;2.08;;;0.70;;
30173;SDS011;16985;50.814;8.530;2023-07-28T01:48:30;0.70;;;0.68;;
30173;SDS011;16985;50.814;8.530;2023-07-28T01:50:56;0.60;;;0.60;;
30173;SDS011;16985;50.814;8.530;2023-07-28T01:53:22;0.63;;;0.55;;
30173;SDS011;16985;50.814;8.530;2023-07-28T01:55:48;0.95;;;0.75;;
30173;SDS011;16985;50.814;8.530;2023-07-28T01:58:13;1.05;;;0.70;;
30173;SDS011;16985;50.814;8.530;2023-07-28T02:00:39;0.57;;;0.50;;
30173;SDS011;16985;50.814;8.530;2023-07-28T02:03:05;0.65;;;0.65;;
30173;SDS011;16985;50.814;8.530;2023-07-28T02:05:32;2.05;;;0.65;;
30173;SDS011;16985;50.814;8.530;2023-07-28T02:07:58;0.95;;;0.63;;
30173;SDS011;16985;50.814;8.530;2023-07-28T02:10:24;2.72;;;0.60;;
30173;SDS011;16985;50.814;8.530;2023-07-28T02:12:51;0.80;;;0.60;;
30173;SDS011;16985;50.814;8.530;2023-07-28T02:15:17;0.70;;;0.60;;
30173;SDS011;16985;50.814;8.530;2023-07-28T02:17:43;0.70;;;0.50;;
30173;SDS011;16985;50.814;8.530;2023-07-28T02:20:09;1.38;;;0.63;;
30173;SDS011;16985;50.814;8.530;2023-07-28T02:22:47;1.52;;;0.60;;
30173;SDS011;16985;50.814;8.530;2023-07-28T02:25:13;1.33;;;0.77;;
30173;SDS011;16985;50.814;8.530;2023-07-28T02:27:38;0.80;;;0.73;;
30173;SDS011;16985;50.814;8.530;2023-07-28T02:30:05;0.60;;;0.60;;
30173;SDS011;16985;50.814;8.530;2023-07-28T02:32:31;1.17;;;0.70;;
30173;SDS011;16985;50.814;8.530;2023-07-28T02:34:57;1.85;;;0.70;;
30173;SDS011;16985;50.814;8.530;2023-07-28T02:37:24;1.75;;;0.60;;
30173;SDS011;16985;50.814;8.530;2023-07-28T02:39:50;0.75;;;0.60;;
30173;SDS011;16985;50.814;8.530;2023-07-28T02:42:16;0.52;;;0.52;;
30173;SDS011;16985;50.814;8.530;2023-07-28T02:44:42;1.45;;;1.35;;
30173;SDS011;16985;50.814;8.530;2023-07-28T02:47:08;1.15;;;1.08;;
30173;SDS011;16985;50.814;8.530;2023-07-28T02:49:34;0.70;;;0.70;;
30173;SDS011;16985;50.814;8.530;2023-07-28T02:51:59;0.73;;;0.70;;
30173;SDS011;16985;50.814;8.530;2023-07-28T02:54:25;0.85;;;0.70;;
30173;SDS011;16985;50.814;8.530;2023-07-28T02:56:51;0.98;;;0.90;;
30173;SDS011;16985;50.814;8.530;2023-07-28T02:59:17;2.97;;;0.70;;
30173;SDS011;16985;50.814;8.530;2023-07-28T03:01:44;0.93;;;0.80;;
30173;SDS011;16985;50.814;8.530;2023-07-28T03:04:10;0.85;;;0.60;;
30173;SDS011;16985;50.814;8.530;2023-07-28T03:07:02;3.30;;;0.60;;
30173;SDS011;16985;50.814;8.530;2023-07-28T03:09:28;1.35;;;0.73;;
30173;SDS011;16985;50.814;8.530;2023-07-28T03:11:59;1.58;;;0.65;;
30173;SDS011;16985;50.814;8.530;2023-07-28T03:14:25;0.50;;;0.50;;
30173;SDS011;16985;50.814;8.530;2023-07-28T03:16:51;0.60;;;0.50;;
30173;SDS011;16985;50.814;8.530;2023-07-28T03:19:17;4.47;;;0.70;;
30173;SDS011;16985;50.814;8.530;2023-07-28T03:21:43;3.33;;;0.68;;
30173;SDS011;16985;50.814;8.530;2023-07-28T03:24:09;0.90;;;0.70;;
30173;SDS011;16985;50.814;8.530;2023-07-28T03:26:35;3.33;;;0.52;;
30173;SDS011;16985;50.814;8.530;2023-07-28T03:29:01;0.70;;;0.70;;
30173;SDS011;16985;50.814;8.530;2023-07-28T03:31:27;3.03;;;0.50;;
30173;SDS011;16985;50.814;8.530;2023-07-28T03:33:53;0.50;;;0.50;;
30173;SDS011;16985;50.814;8.530;2023-07-28T03:36:19;0.90;;;0.60;;
30173;SDS011;16985;50.814;8.530;2023-07-28T03:38:45;1.10;;;0.60;;
30173;SDS011;16985;50.814;8.530;2023-07-28T03:41:13;0.70;;;0.70;;
30173;SDS011;16985;50.814;8.530;2023-07-28T03:43:39;1.65;;;0.60;;
30173;SDS011;16985;50.814;8.530;2023-07-28T03:46:06;1.77;;;0.57;;
30173;SDS011;16985;50.814;8.530;2023-07-28T03:48:32;0.80;;;0.80;;
30173;SDS011;16985;50.814;8.530;2023-07-28T03:50:58;0.98;;;0.80;;
30173;SDS011;16985;50.814;8.530;2023-07-28T03:53:24;1.48;;;0.73;;
30173;SDS011;16985;50.814;8.530;2023-07-28T03:55:51;0.80;;;0.60;;
30173;SDS011;16985;50.814;8.530;2023-07-28T03:58:17;2.50;;;0.50;;
30173;SDS011;16985;50.814;8.530;2023-07-28T04:00:42;1.25;;;0.77;;
30173;SDS011;16985;50.814;8.530;2023-07-28T04:03:08;1.05;;;0.60;;
30173;SDS011;16985;50.814;8.530;2023-07-28T04:05:36;1.20;;;0.50;;
30173;SDS011;16985;50.814;8.530;2023-07-28T04:08:02;0.57;;;0.40;;
30173;SDS011;16985;50.814;8.530;2023-07-28T04:10:28;2.28;;;0.75;;
30173;SDS011;16985;50.814;8.530;2023-07-28T04:12:53;0.60;;;0.60;;
30173;SDS011;16985;50.814;8.530;2023-07-28T04:15:19;0.50;;;0.50;;
30173;SDS011;16985;50.814;8.530;2023-07-28T04:17:45;0.40;;;0.40;;
30173;SDS011;16985;50.814;8.530;2023-07-28T04:20:11;0.45;;;0.45;;
30173;SDS011;16985;50.814;8.530;2023-07-28T04:22:37;1.02;;;0.57;;
30173;SDS011;16985;50.814;8.530;2023-07-28T04:25:03;0.93;;;0.93;;
30173;SDS011;16985;50.814;8.530;2023-07-28T04:27:30;1.35;;;0.50;;
30173;SDS011;16985;50.814;8.530;2023-07-28T04:29:59;1.05;;;0.60;;
30173;SDS011;16985;50.814;8.530;2023-07-28T04:32:25;0.95;;;0.60;;
30173;SDS011;16985;50.814;8.530;2023-07-28T04:34:52;0.40;;;0.40;;
30173;SDS011;16985;50.814;8.530;2023-07-28T04:37:39;0.53;;;0.50;;
30173;SDS011;16985;50.814;8.530;2023-07-28T04:40:07;0.68;;;0.40;;
30173;SDS011;16985;50.814;8.530;2023-07-28T04:42:36;0.40;;;0.40;;
30173;SDS011;16985;50.814;8.530;2023-07-28T04:45:03;0.40;;;0.40;;
30173;SDS011;16985;50.814;8.530;2023-07-28T04:47:30;0.30;;;0.30;;
30173;SDS011;16985;50.814;8.530;2023-07-28T04:49:56;0.40;;;0.40;;
30173;SDS011;16985;50.814;8.530;2023-07-28T04:52:42;0.63;;;0.50;;
30173;SDS011;16985;50.814;8.530;2023-07-28T04:55:29;1.95;;;0.47;;
30173;SDS011;16985;50.814;8.530;2023-07-28T04:57:55;0.55;;;0.40;;
30173;SDS011;16985;50.814;8.530;2023-07-28T05:00:23;0.35;;;0.35;;
30173;SDS011;16985;50.814;8.530;2023-07-28T05:02:49;0.70;;;0.52;;
30173;SDS011;16985;50.814;8.530;2023-07-28T05:05:15;0.57;;;0.40;;
30173;SDS011;16985;50.814;8.530;2023-07-28T05:07:41;1.23;;;0.40;;
30173;SDS011;16985;50.814;8.530;2023-07-28T05:10:11;0.50;;;0.50;;
30173;SDS011;16985;50.814;8.530;2023-07-28T05:12:37;1.48;;;0.60;;
30173;SDS011;16985;50.814;8.530;2023-07-28T05:15:03;0.55;;;0.40;;
30173;SDS011;16985;50.814;8.530;2023-07-28T05:17:30;0.93;;;0.52;;
30173;SDS011;16985;50.814;8.530;2023-07-28T05:20:15;0.85;;;0.60;;
30173;SDS011;16985;50.814;8.530;2023-07-28T05:23:04;0.45;;;0.45;;
30173;SDS011;16985;50.814;8.530;2023-07-28T05:25:29;0.77;;;0.40;;
30173;SDS011;16985;50.814;8.530;2023-07-28T05:27:55;1.45;;;0.50;;
30173;SDS011;16985;50.814;8.530;2023-07-28T05:30:21;0.63;;;0.55;;
30173;SDS011;16985;50.814;8.530;2023-07-28T05:32:47;0.30;;;0.30;;
30173;SDS011;16985;50.814;8.530;2023-07-28T05:35:23;0.30;;;0.30;;
30173;SDS011;16985;50.814;8.530;2023-07-28T05:37:49;0.45;;;0.43;;
30173;SDS011;16985;50.814;8.530;2023-07-28T05:40:15;0.63;;;0.60;;
30173;SDS011;16985;50.814;8.530;2023-07-28T05:42:41;0.40;;;0.40;;
30173;SDS011;16985;50.814;8.530;2023-07-28T05:45:07;0.40;;;0.40;;
30173;SDS011;16985;50.814;8.530;2023-07-28T05:47:34;2.00;;;0.30;;
30173;SDS011;16985;50.814;8.530;2023-07-28T05:50:00;0.30;;;0.30;;
30173;SDS011;16985;50.814;8.530;2023-07-28T05:52:26;0.45;;;0.45;;
30173;SDS011;16985;50.814;8.530;2023-07-28T05:54:52;1.95;;;0.40;;
30173;SDS011;16985;50.814;8.530;2023-07-28T05:57:19;0.57;;;0.40;;
30173;SDS011;16985;50.814;8.530;2023-07-28T05:59:45;1.17;;;0.57;;
30173;SDS011;16985;50.814;8.530;2023-07-28T06:02:14;0.30;;;0.30;;
30173;SDS011;16985;50.814;8.530;2023-07-28T06:04:46;0.28;;;0.28;;
30173;SDS011;16985;50.814;8.530;2023-07-28T06:07:12;0.30;;;0.30;;
30173;SDS011;16985;50.814;8.530;2023-07-28T06:09:37;0.45;;;0.32;;
30173;SDS011;16985;50.814;8.530;2023-07-28T06:12:04;0.30;;;0.30;;
30173;SDS011;16985;50.814;8.530;2023-07-28T06:14:31;0.30;;;0.30;;
30173;SDS011;16985;50.814;8.530;2023-07-28T06:16:57;0.30;;;0.30;;
30173;SDS011;16985;50.814;8.530;2023-07-28T06:19:27;0.30;;;0.30;;
30173;SDS011;16985;50.814;8.530;2023-07-28T06:21:53;1.67;;;0.40;;
30173;SDS011;16985;50.814;8.530;2023-07-28T06:24:20;0.75;;;0.30;;
30173;SDS011;16985;50.814;8.530;2023-07-28T06:26:46;0.32;;;0.32;;
30173;SDS011;16985;50.814;8.530;2023-07-28T06:29:11;0.20;;;0.20;;
30173;SDS011;16985;50.814;8.530;2023-07-28T06:31:37;0.30;;;0.30;;
30173;SDS011;16985;50.814;8.530;2023-07-28T06:34:03;1.45;;;0.40;;
30173;SDS011;16985;50.814;8.530;2023-07-28T06:36:29;0.52;;;0.30;;
30173;SDS011;16985;50.814;8.530;2023-07-28T06:38:55;3.65;;;0.40;;
30173;SDS011;16985;50.814;8.530;2023-07-28T06:41:21;0.30;;;0.30;;
30173;SDS011;16985;50.814;8.530;2023-07-28T06:43:53;0.30;;;0.30;;
30173;SDS011;16985;50.814;8.530;2023-07-28T06:46:19;0.30;;;0.30;;
30173;SDS011;16985;50.814;8.530;2023-07-28T06:48:45;0.60;;;0.30;;
30173;SDS011;16985;50.814;8.530;2023-07-28T06:51:14;0.32;;;0.32;;
30173;SDS011;16985;50.814;8.530;2023-07-28T06:53:41;0.20;;;0.20;;
30173;SDS011;16985;50.814;8.530;2023-07-28T06:56:06;0.20;;;0.20;;
30173;SDS011;16985;50.814;8.530;2023-07-28T06:58:32;0.30;;;0.30;;
30173;SDS011;16985;50.814;8.530;2023-07-28T07:00:58;0.30;;;0.30;;
30173;SDS011;16985;50.814;8.530;2023-07-28T07:03:24;0.30;;;0.30;;
30173;SDS011;16985;50.814;8.530;2023-07-28T07:05:50;0.65;;;0.30;;
30173;SDS011;16985;50.814;8.530;2023-07-28T07:08:16;0.85;;;0.35;;
30173;SDS011;16985;50.814;8.530;2023-07-28T07:10:48;0.20;;;0.20;;
30173;SDS011;16985;50.814;8.530;2023-07-28T07:13:17;0.30;;;0.30;;
30173;SDS011;16985;50.814;8.530;2023-07-28T07:15:43;1.60;;;0.30;;
30173;SDS011;16985;50.814;8.530;2023-07-28T07:18:10;0.20;;;0.20;;
30173;SDS011;16985;50.814;8.530;2023-07-28T07:20:37;0.30;;;0.30;;
30173;SDS011;16985;50.814;8.530;2023-07-28T07:23:04;0.73;;;0.20;;
30173;SDS011;16985;50.814;8.530;2023-07-28T07:25:38;0.32;;;0.30;;
30173;SDS011;16985;50.814;8.530;2023-07-28T07:28:04;0.20;;;0.20;;
30173;SDS011;16985;50.814;8.530;2023-07-28T07:30:34;0.30;;;0.30;;
30173;SDS011;16985;50.814;8.530;2023-07-28T07:33:00;0.30;;;0.30;;
30173;SDS011;16985;50.814;8.530;2023-07-28T07:35:26;0.50;;;0.50;;
30173;SDS011;16985;50.814;8.530;2023-07-28T07:37:51;0.28;;;0.28;;
30173;SDS011;16985;50.814;8.530;2023-07-28T07:40:17;0.30;;;0.30;;
30173;SDS011;16985;50.814;8.530;2023-07-28T07:42:47;0.40;;;0.30;;
30173;SDS011;16985;50.814;8.530;2023-07-28T07:45:14;0.20;;;0.20;;
30173;SDS011;16985;50.814;8.530;2023-07-28T07:47:40;0.32;;;0.30;;
30173;SDS011;16985;50.814;8.530;2023-07-28T07:50:07;0.25;;;0.25;;
30173;SDS011;16985;50.814;8.530;2023-07-28T07:52:35;0.30;;;0.30;;
30173;SDS011;16985;50.814;8.530;2023-07-28T07:55:02;1.08;;;0.30;;
30173;SDS011;16985;50.814;8.530;2023-07-28T07:57:28;0.43;;;0.30;;
30173;SDS011;16985;50.814;8.530;2023-07-28T07:59:57;1.08;;;0.45;;
30173;SDS011;16985;50.814;8.530;2023-07-28T08:02:23;0.57;;;0.30;;
30173;SDS011;16985;50.814;8.530;2023-07-28T08:04:51;0.30;;;0.30;;
30173;SDS011;16985;50.814;8.530;2023-07-28T08:07:18;0.98;;;0.40;;
30173;SDS011;16985;50.814;8.530;2023-07-28T08:09:44;0.40;;;0.40;;
30173;SDS011;16985;50.814;8.530;2023-07-28T08:12:11;1.60;;;0.40;;
30173;SDS011;16985;50.814;8.530;2023-07-28T08:14:38;0.52;;;0.40;;
30173;SDS011;16985;50.814;8.530;2023-07-28T08:17:04;0.30;;;0.30;;
30173;SDS011;16985;50.814;8.530;2023-07-28T08:19:30;0.57;;;0.30;;
30173;SDS011;16985;50.814;8.530;2023-07-28T08:21:56;0.43;;;0.35;;
30173;SDS011;16985;50.814;8.530;2023-07-28T08:24:21;0.20;;;0.20;;
30173;SDS011;16985;50.814;8.530;2023-07-28T08:26:47;0.22;;;0.22;;
30173;SDS011;16985;50.814;8.530;2023-07-28T08:29:14;0.98;;;0.43;;
30173;SDS011;16985;50.814;8.530;2023-07-28T08:31:40;0.30;;;0.30;;
30173;SDS011;16985;50.814;8.530;2023-07-28T08:34:07;0.60;;;0.38;;
30173;SDS011;16985;50.814;8.530;2023-07-28T08:36:33;0.38;;;0.38;;
30173;SDS011;16985;50.814;8.530;2023-07-28T08:38:59;0.40;;;0.40;;
30173;SDS011;16985;50.814;8.530;2023-07-28T08:41:25;0.73;;;0.43;;
30173;SDS011;16985;50.814;8.530;2023-07-28T08:43:52;0.32;;;0.32;;
30173;SDS011;16985;50.814;8.530;2023-07-28T08:46:19;0.43;;;0.30;;
30173;SDS011;16985;50.814;8.530;2023-07-28T08:48:45;0.60;;;0.50;;
30173;SDS011;16985;50.814;8.530;2023-07-28T08:51:12;2.33;;;0.40;;
30173;SDS011;16985;50.814;8.530;2023-07-28T08:53:39;2.60;;;0.32;;
30173;SDS011;16985;50.814;8.530;2023-07-28T08:56:05;4.47;;;0.50;;
30173;SDS011;16985;50.814;8.530;2023-07-28T08:58:32;0.30;;;0.30;;
30173;SDS011;16985;50.814;8.530;2023-07-28T09:00:58;0.52;;;0.30;;
30173;SDS011;16985;50.814;8.530;2023-07-28T09:03:27;0.40;;;0.40;;
30173;SDS011;16985;50.814;8.530;2023-07-28T09:06:00;1.83;;;0.32;;
30173;SDS011;16985;50.814;8.530;2023-07-28T09:08:27;0.30;;;0.30;;
30173;SDS011;16985;50.814;8.530;2023-07-28T09:13:21;1.98;;;0.30;;
30173;SDS011;16985;50.814;8.530;2023-07-28T09:15:47;0.95;;;0.38;;
30173;SDS011;16985;50.814;8.530;2023-07-28T09:18:16;0.20;;;0.20;;
30173;SDS011;16985;50.814;8.530;2023-07-28T09:20:42;0.40;;;0.22;;
30173;SDS011;16985;50.814;8.530;2023-07-28T09:23:09;0.30;;;0.30;;
30173;SDS011;16985;50.814;8.530;2023-07-28T09:25:36;0.30;;;0.30;;
30173;SDS011;16985;50.814;8.530;2023-07-28T09:28:03;0.45;;;0.32;;
30173;SDS011;16985;50.814;8.530;2023-07-28T09:30:48;0.38;;;0.30;;
30173;SDS011;16985;50.814;8.530;2023-07-28T09:33:29;0.57;;;0.40;;
30173;SDS011;16985;50.814;8.530;2023-07-28T09:35:57;0.65;;;0.50;;
30173;SDS011;16985;50.814;8.530;2023-07-28T09:38:32;0.40;;;0.40;;
30173;SDS011;16985;50.814;8.530;2023-07-28T09:41:06;0.68;;;0.45;;
30173;SDS011;16985;50.814;8.530;2023-07-28T09:43:38;1.00;;;0.60;;
30173;SDS011;16985;50.814;8.530;2023-07-28T09:46:08;3.42;;;0.60;;
30173;SDS011;16985;50.814;8.530;2023-07-28T09:51:12;0.57;;;0.47;;
30173;SDS011;16985;50.814;8.530;2023-07-28T09:53:46;5.43;;;0.77;;
30173;SDS011;16985;50.814;8.530;2023-07-28T09:56:19;3.45;;;0.80;;
30173;SDS011;16985;50.814;8.530;2023-07-28T09:58:51;1.05;;;0.80;;
30173;SDS011;16985;50.814;8.530;2023-07-28T10:01:21;1.05;;;0.60;;
30173;SDS011;16985;50.814;8.530;2023-07-28T10:03:48;1.08;;;0.73;;
30173;SDS011;16985;50.814;8.530;2023-07-28T10:06:15;1.48;;;1.10;;
30173;SDS011;16985;50.814;8.530;2023-07-28T10:08:42;0.80;;;0.80;;
30173;SDS011;16985;50.814;8.530;2023-07-28T10:11:12;1.05;;;0.88;;
30173;SDS011;16985;50.814;8.530;2023-07-28T10:13:41;2.08;;;0.95;;
30173;SDS011;16985;50.814;8.530;2023-07-28T10:16:09;3.90;;;0.73;;
30173;SDS011;16985;50.814;8.530;2023-07-28T10:18:35;2.45;;;1.10;;
30173;SDS011;16985;50.814;8.530;2023-07-28T10:21:05;1.10;;;1.00;;
30173;SDS011;16985;50.814;8.530;2023-07-28T10:23:34;1.40;;;1.10;;
30173;SDS011;16985;50.814;8.530;2023-07-28T10:26:03;1.25;;;0.85;;
30173;SDS011;16985;50.814;8.530;2023-07-28T10:31:08;1.30;;;1.20;;
30173;SDS011;16985;50.814;8.530;2023-07-28T10:33:43;1.27;;;0.90;;
30173;SDS011;16985;50.814;8.530;2023-07-28T10:39:00;1.23;;;1.13;;
30173;SDS011;16985;50.814;8.530;2023-07-28T10:41:26;1.35;;;1.25;;
30173;SDS011;16985;50.814;8.530;2023-07-28T10:43:52;3.28;;;1.00;;
30173;SDS011;16985;50.814;8.530;2023-07-28T10:46:19;1.77;;;1.40;;
30173;SDS011;16985;50.814;8.530;2023-07-28T10:48:47;2.15;;;1.30;;
30173;SDS011;16985;50.814;8.530;2023-07-28T10:51:24;1.80;;;1.23;;
30173;SDS011;16985;50.814;8.530;2023-07-28T10:53:57;1.40;;;1.30;;
30173;SDS011;16985;50.814;8.530;2023-07-28T10:56:24;1.80;;;1.27;;
30173;SDS011;16985;50.814;8.530;2023-07-28T10:58:57;2.38;;;1.15;;
30173;SDS011;16985;50.814;8.530;2023-07-28T11:01:32;1.50;;;1.20;;
30173;SDS011;16985;50.814;8.530;2023-07-28T11:04:15;0.82;;;0.80;;
30173;SDS011;16985;50.814;8.530;2023-07-28T11:06:44;0.73;;;0.73;;
30173;SDS011;16985;50.814;8.530;2023-07-28T11:09:13;0.70;;;0.70;;
30173;SDS011;16985;50.814;8.530;2023-07-28T11:11:41;0.60;;;0.60;;
30173;SDS011;16985;50.814;8.530;2023-07-28T11:14:08;0.80;;;0.80;;
30173;SDS011;16985;50.814;8.530;2023-07-28T11:16:35;0.85;;;0.65;;
30173;SDS011;16985;50.814;8.530;2023-07-28T11:19:09;0.63;;;0.63;;
30173;SDS011;16985;50.814;8.530;2023-07-28T11:21:41;1.27;;;0.60;;
30173;SDS011;16985;50.814;8.530;2023-07-28T11:24:08;1.10;;;0.80;;
30173;SDS011;16985;50.814;8.530;2023-07-28T11:26:43;0.60;;;0.60;;
30173;SDS011;16985;50.814;8.530;2023-07-28T11:29:11;0.70;;;0.70;;
30173;SDS011;16985;50.814;8.530;2023-07-28T11:31:37;0.50;;;0.50;;
30173;SDS011;16985;50.814;8.530;2023-07-28T11:34:12;0.60;;;0.50;;
30173;SDS011;16985;50.814;8.530;2023-07-28T11:36:41;1.33;;;0.40;;
30173;SDS011;16985;50.814;8.530;2023-07-28T11:39:07;1.15;;;0.52;;
30173;SDS011;16985;50.814;8.530;2023-07-28T11:44:01;1.73;;;0.30;;
30173;SDS011;16985;50.814;8.530;2023-07-28T11:46:31;0.65;;;0.57;;
30173;SDS011;16985;50.814;8.530;2023-07-28T11:49:10;0.70;;;0.55;;
30173;SDS011;16985;50.814;8.530;2023-07-28T11:51:47;2.30;;;0.82;;
30173;SDS011;16985;50.814;8.530;2023-07-28T11:54:17;0.75;;;0.52;;
30173;SDS011;16985;50.814;8.530;2023-07-28T11:56:47;5.40;;;0.50;;
30173;SDS011;16985;50.814;8.530;2023-07-28T11:59:18;0.57;;;0.57;;
30173;SDS011;16985;50.814;8.530;2023-07-28T12:01:52;0.43;;;0.43;;
30173;SDS011;16985;50.814;8.530;2023-07-28T12:04:23;0.95;;;0.47;;
30173;SDS011;16985;50.814;8.530;2023-07-28T12:07:00;0.50;;;0.50;;
30173;SDS011;16985;50.814;8.530;2023-07-28T12:12:26;0.55;;;0.40;;
30173;SDS011;16985;50.814;8.530;2023-07-28T12:14:57;0.47;;;0.40;;
30173;SDS011;16985;50.814;8.530;2023-07-28T12:17:29;0.63;;;0.40;;
30173;SDS011;16985;50.814;8.530;2023-07-28T12:20:00;0.73;;;0.50;;
30173;SDS011;16985;50.814;8.530;2023-07-28T12:22:35;1.88;;;0.40;;
30173;SDS011;16985;50.814;8.530;2023-07-28T12:25:05;0.30;;;0.30;;
30173;SDS011;16985;50.814;8.530;2023-07-28T12:27:32;0.40;;;0.40;;
30173;SDS011;16985;50.814;8.530;2023-07-28T12:29:58;0.47;;;0.47;;
30173;SDS011;16985;50.814;8.530;2023-07-28T12:32:24;0.95;;;0.45;;
30173;SDS011;16985;50.814;8.530;2023-07-28T12:34:50;0.43;;;0.40;;
30173;SDS011;16985;50.814;8.530;2023-07-28T12:37:17;0.40;;;0.30;;
30173;SDS011;16985;50.814;8.530;2023-07-28T12:39:43;0.30;;;0.30;;
30173;SDS011;16985;50.814;8.530;2023-07-28T12:42:09;1.25;;;0.95;;
30173;SDS011;16985;50.814;8.530;2023-07-28T12:44:36;0.50;;;0.45;;
30173;SDS011;16985;50.814;8.530;2023-07-28T12:47:03;1.20;;;0.40;;
30173;SDS011;16985;50.814;8.530;2023-07-28T12:49:29;0.25;;;0.25;;
30173;SDS011;16985;50.814;8.530;2023-07-28T12:51:58;0.43;;;0.35;;
30173;SDS011;16985;50.814;8.530;2023-07-28T12:54:24;1.73;;;0.40;;
30173;SDS011;16985;50.814;8.530;2023-07-28T12:56:51;0.73;;;0.40;;
30173;SDS011;16985;50.814;8.530;2023-07-28T12:59:19;0.88;;;0.43;;
30173;SDS011;16985;50.814;8.530;2023-07-28T13:01:45;0.50;;;0.50;;
30173;SDS011;16985;50.814;8.530;2023-07-28T13:04:11;1.17;;;0.30;;
30173;SDS011;16985;50.814;8.530;2023-07-28T13:06:37;0.22;;;0.22;;
30173;SDS011;16985;50.814;8.530;2023-07-28T13:09:03;0.50;;;0.40;;
30173;SDS011;16985;50.814;8.530;2023-07-28T13:11:29;1.02;;;0.50;;
30173;SDS011;16985;50.814;8.530;2023-07-28T13:13:55;1.02;;;0.40;;
30173;SDS011;16985;50.814;8.530;2023-07-28T13:16:21;0.30;;;0.30;;
30173;SDS011;16985;50.814;8.530;2023-07-28T13:18:47;1.90;;;0.60;;
30173;SDS011;16985;50.814;8.530;2023-07-28T13:21:13;0.52;;;0.47;;
30173;SDS011;16985;50.814;8.530;2023-07-28T13:23:39;3.13;;;0.82;;
30173;SDS011;16985;50.814;8.530;2023-07-28T13:26:05;3.05;;;0.52;;
30173;SDS011;16985;50.814;8.530;2023-07-28T13:28:31;1.10;;;0.70;;
30173;SDS011;16985;50.814;8.530;2023-07-28T13:30:59;0.57;;;0.30;;
30173;SDS011;16985;50.814;8.530;2023-07-28T13:33:27;1.50;;;0.73;;
30173;SDS011;16985;50.814;8.530;2023-07-28T13:35:52;0.40;;;0.40;;
30173;SDS011;16985;50.814;8.530;2023-07-28T13:38:18;0.68;;;0.50;;
30173;SDS011;16985;50.814;8.530;2023-07-28T13:40:44;1.13;;;0.40;;
30173;SDS011;16985;50.814;8.530;2023-07-28T13:43:10;0.95;;;0.70;;
30173;SDS011;16985;50.814;8.530;2023-07-28T13:45:36;1.92;;;0.90;;
30173;SDS011;16985;50.814;8.530;2023-07-28T13:48:02;0.95;;;0.50;;
30173;SDS011;16985;50.814;8.530;2023-07-28T13:50:28;1.25;;;0.90;;
30173;SDS011;16985;50.814;8.530;2023-07-28T13:52:54;2.58;;;0.50;;
30173;SDS011;16985;50.814;8.530;2023-07-28T13:55:20;6.50;;;0.70;;
30173;SDS011;16985;50.814;8.530;2023-07-28T13:57:46;0.88;;;0.55;;
30173;SDS011;16985;50.814;8.530;2023-07-28T14:00:12;0.93;;;0.50;;
30173;SDS011;16985;50.814;8.530;2023-07-28T14:02:38;0.95;;;0.85;;
30173;SDS011;16985;50.814;8.530;2023-07-28T14:05:05;1.67;;;0.40;;
30173;SDS011;16985;50.814;8.530;2023-07-28T14:07:32;0.82;;;0.60;;
30173;SDS011;16985;50.814;8.530;2023-07-28T14:10:00;1.77;;;0.60;;
30173;SDS011;16985;50.814;8.530;2023-07-28T14:12:26;0.57;;;0.57;;
30173;SDS011;16985;50.814;8.530;2023-07-28T14:14:52;3.53;;;0.60;;
30173;SDS011;16985;50.814;8.530;2023-07-28T14:17:18;1.05;;;0.57;;
30173;SDS011;16985;50.814;8.530;2023-07-28T14:19:44;0.40;;;0.40;;
30173;SDS011;16985;50.814;8.530;2023-07-28T14:22:10;1.10;;;0.50;;
30173;SDS011;16985;50.814;8.530;2023-07-28T14:24:36;1.17;;;0.50;;
30173;SDS011;16985;50.814;8.530;2023-07-28T14:27:02;2.53;;;0.70;;
30173;SDS011;16985;50.814;8.530;2023-07-28T14:29:28;1.42;;;0.57;;
30173;SDS011;16985;50.814;8.530;2023-07-28T14:31:54;1.50;;;0.70;;
30173;SDS011;16985;50.814;8.530;2023-07-28T14:34:20;7.38;;;1.02;;
30173;SDS011;16985;50.814;8.530;2023-07-28T14:36:45;6.85;;;1.98;;
30173;SDS011;16985;50.814;8.530;2023-07-28T14:39:11;5.85;;;1.88;;
30173;SDS011;16985;50.814;8.530;2023-07-28T14:41:37;7.68;;;3.10;;
30173;SDS011;16985;50.814;8.530;2023-07-28T14:44:03;11.45;;;1.48;;
30173;SDS011;16985;50.814;8.530;2023-07-28T14:46:29;6.95;;;1.52;;
30173;SDS011;16985;50.814;8.530;2023-07-28T14:48:55;8.95;;;2.80;;
30173;SDS011;16985;50.814;8.530;2023-07-28T14:51:21;8.63;;;2.15;;
30173;SDS011;16985;50.814;8.530;2023-07-28T14:53:48;2.60;;;1.35;;
30173;SDS011;16985;50.814;8.530;2023-07-28T14:56:14;3.17;;;1.35;;
30173;SDS011;16985;50.814;8.530;2023-07-28T14:58:41;4.65;;;1.63;;
30173;SDS011;16985;50.814;8.530;2023-07-28T15:01:09;7.78;;;2.30;;
30173;SDS011;16985;50.814;8.530;2023-07-28T15:03:35;3.17;;;1.60;;
30173;SDS011;16985;50.814;8.530;2023-07-28T15:06:02;3.85;;;1.40;;
30173;SDS011;16985;50.814;8.530;2023-07-28T15:10:56;3.72;;;1.35;;
30173;SDS011;16985;50.814;8.530;2023-07-28T15:13:22;2.92;;;1.38;;